Impacts TAF Board
For situational awareness. Not to be used for flight planning purposes.
IDs:

KGRK - Killeen-Ft Hood Rgnl, TX, US

Issued at 0800 UTC 23 Sep 2020
Updated at 1555 UTC 23 Sep 2020
Potential Impact None Slight Moderate High
Time1529Z 23/16Z 23/17Z 23/18Z 23/19Z 23/20Z 23/21Z 23/22Z 23/23Z 24/00Z 24/01Z 24/02Z 24/03Z 24/04Z>>
Type OBS PRVL PRVL PRVL PRVL PRVL PRVL PRVL PRVL PRVL PRVL PRVL PRVL PRVL
VIS 8 >6 >6 >6 >6 >6 >6 >6 >6 >6 >6 >6 >6 2.98
CIG 14 5 5 5 5 5 30 30 30 30 30 30 30 7
Cover BKN OVC OVC OVC OVC OVC BKN BKN BKN BKN BKN BKN BKN OVC
FltCat MVFR IFR IFR IFR IFR IFR MVFR MVFR MVFR MVFR MVFR MVFR MVFR IFR
WX -- NSW NSW NSW NSW NSW NSW NSW NSW NSW NSW NSW NSW BR
WDir 360 340 340 340 340 340 20 20 20 20 20 20 20 10
WSpd 11 10 10 10 10 10 9 9 9 9 9 9 9 6
WGst -- 15 15 15 15 15 -- -- -- -- -- -- -- --
Raw TAF
TAF KGRK 230800Z 2308/2414 02006KT 4800 BR OVC004 QNH2994INS
  TEMPO 2308/2314 1400 BR
  BECMG 2313/2314 34010G15KT 9999 NSW BKN005 OVC020 QNH2990INS
  BECMG 2321/2322 02009KT 9999 BKN030 QNH2991INS
  BECMG 2404/2405 01006KT 4800 BR OVC007 QNH2994INS TX25/2321Z TN19/2312Z


Raw METAR
KGRK 231529Z AUTO 36011KT 8SM BKN014 20/18 A2998 RMK AO2 RAE09 CIG 010 RWY15 SLP146
KGRK 231524Z AUTO 36010KT 7SM SCT009 BKN015 20/18 A2998 RMK AO2 RAE09 CIG 009V015 BKN V SCT CIG 010 RWY15 SLP146
KGRK 231519Z AUTO 36011KT 5SM BR SCT009 20/18 A2997 RMK AO2 RAE09 SLP142
KGRK 231514Z AUTO 36011KT 4SM BR BKN009 19/18 A2997 RMK AO2 RAE09 BKN V OVC SLP142
KGRK 231509Z AUTO 35008KT 3SM BR BKN010 19/18 A2997 RMK AO2 RAE09 SLP142
KGRK 231508Z AUTO 35009KT 3SM -RA BR BKN010 19/18 A2997 RMK AO2 SLP142
KGRK 231458Z AUTO 35009KT 5SM -RA BR OVC009 19/18 A2997 RMK AO2 RAE1357RAB30E43RAB48 OVC V BKN SLP142 P0000 60000 T01940183 52014
KGRK 231448Z AUTO 01008KT 6SM -RA BR BKN009 OVC014 19/18 A2996 RMK AO2 RAE1357RAB30E43RAB48 CIG 009V014 BKN V SCT SLP139
KGRK 231443Z AUTO 01008KT 6SM BR BKN009 OVC014 19/18 A2996 RMK AO2 RAE1357RAB30E43 CIG 009V014 BKN V SCT SLP139
KGRK 231440Z AUTO 01008KT 5SM -RA BR SCT009 OVC014 19/18 A2996 RMK AO2 RAE1357RAB30 CIG 009V014 CIG 006 RWY15 SLP139
KGRK 231430Z AUTO 01008KT 4SM -RA BR FEW008 OVC014 19/18 A2996 RMK AO2 RAE1357RAB30 CIG 007 RWY15 SLP139
KGRK 231429Z AUTO 01009KT 5SM BR SCT009 OVC015 19/18 A2996 RMK AO2 RAE1357 CIG 007 RWY15 SLP139
KGRK 231419Z AUTO 01011KT 5SM BR SCT008 OVC014 19/18 A2996 RMK AO2 RAE1357 CIG 008V014 CIG 007 RWY15 SLPNO
KGRK 231359Z AUTO 36007KT 3SM BR BKN008 OVC013 19/18 A2995 RMK AO2 RAE57 CIG 007V012 SLP135
KGRK 231358Z AUTO 36007KT 3SM -RA BR BKN007 OVC012 19/18 A2995 RMK AO2 RAB48 CIG 007V012 BKN V SCT SLP135 P0000
KGRK 231355Z AUTO 01007KT 3SM -RA BR BKN007 OVC012 19/18 A2995 RMK AO2 RAB48 CIG 007V012 BKN V SCT SLP135
KGRK 231350Z AUTO 01009KT 3SM -RA BR SCT007 OVC012 19/18 A2995 RMK AO2 RAB48 CIG 008V012 CIG 006 RWY15 SLP135
KGRK 231349Z AUTO 01008KT 2 3/4SM -RA BR BKN010 OVC014 19/18 A2995 RMK AO2 VIS 2 1/2V3 RAB48 CIG 008V010 BKN V OVC CIG 006 RWY15 SLP135
KGRK 231348Z AUTO 01008KT 2 1/2SM BR BKN010 OVC014 19/18 A2995 RMK AO2 VIS 2 1/2V3 CIG 008V010 BKN V OVC CIG 006 RWY15 SLP135
KGRK 231338Z AUTO 01009KT 4SM BR BKN008 OVC012 19/18 A2995 RMK AO2 SLP135
KGRK 231258Z AUTO 01010KT 4SM BR BKN007 OVC011 19/18 A2994 RMK AO2 BKN V OVC SLP132 T01890181
KGRK 231253Z AUTO 01009KT 4SM BR BKN007 OVC011 19/18 A2994 RMK AO2 BKN V OVC SLP132
KGRK 231251Z AUTO 01008KT 3SM BR OVC008 19/18 A2994 RMK AO2 SLP132
KGRK 231241Z AUTO 01009KT 2 3/4SM BR OVC007 19/18 A2993 RMK AO2 VIS 2 3/4V4 SLP128

METAR Board
For situational awareness. Not to be used for flight planning purposes.